createdAt,value
2018-10-17T00:00:23.294Z,59.4
2018-10-17T00:01:15.030Z,59.4
2018-10-17T00:02:03.694Z,59.4
2018-10-17T00:02:53.537Z,59.4
2018-10-17T00:03:44.101Z,59.4
2018-10-17T00:04:34.196Z,59.4
2018-10-17T00:05:24.239Z,59.4
2018-10-17T00:06:14.004Z,59.4
2018-10-17T00:07:04.191Z,59.3
2018-10-17T00:25:20.103Z,59
2018-10-17T00:26:10.315Z,59
2018-10-17T00:27:00.034Z,59
2018-10-17T00:27:50.685Z,59
2018-10-17T00:28:40.753Z,59
2018-10-17T00:29:30.250Z,58.9
2018-10-17T00:30:20.599Z,58.9
2018-10-17T00:31:12.033Z,58.9
2018-10-17T00:32:00.148Z,58.9
2018-10-17T00:32:50.475Z,58.9
2018-10-17T00:33:41.112Z,58.9
2018-10-17T00:34:30.429Z,58.9
2018-10-17T00:35:20.886Z,58.9
2018-10-17T00:36:10.760Z,58.8
2018-10-17T00:37:01.594Z,58.8
2018-10-17T00:37:50.572Z,58.8
2018-10-17T00:38:41.197Z,58.8
2018-10-17T00:39:30.947Z,58.8
2018-10-17T00:40:22.090Z,58.8
2018-10-17T00:41:12.052Z,58.8
2018-10-17T00:42:01.742Z,58.8
2018-10-17T00:42:51.808Z,58.8
2018-10-17T00:43:41.567Z,58.7
2018-10-17T00:44:32.161Z,58.7
2018-10-17T00:45:21.970Z,58.7
2018-10-17T00:46:11.477Z,58.6
2018-10-17T00:47:02.040Z,58.7
2018-10-17T00:47:51.870Z,58.6
2018-10-17T00:48:41.949Z,58.6
2018-10-17T00:49:31.999Z,58.6
2018-10-17T00:50:21.769Z,58.6
2018-10-17T00:55:22.415Z,58.5
2018-10-17T00:56:12.791Z,58.5
2018-10-17T00:57:01.989Z,58.5
2018-10-17T00:57:53.138Z,58.5
2018-10-17T00:58:42.659Z,58.4
2018-10-17T00:59:32.744Z,58.4
2018-10-17T01:00:22.809Z,58.4
2018-10-17T01:01:14.459Z,58.4
2018-10-17T01:02:02.924Z,58.4
2018-10-17T01:02:52.692Z,58.4
2018-10-17T01:03:43.041Z,58.4
2018-10-17T01:04:33.388Z,58.4
2018-10-17T01:05:23.485Z,58.3
2018-10-17T01:06:13.514Z,58.3
2018-10-17T01:07:04.309Z,58.3
2018-10-17T01:07:53.083Z,58.3
2018-10-17T01:08:43.948Z,58.3
2018-10-17T01:09:33.466Z,58.3
2018-10-17T01:10:23.853Z,58.3
2018-10-17T01:11:14.878Z,58.3
2018-10-17T01:12:03.457Z,58.3
2018-10-17T01:12:54.427Z,58.3
2018-10-17T01:13:43.228Z,58.2
2018-10-17T01:14:33.569Z,58.2
2018-10-17T01:15:23.366Z,58.2
2018-10-17T01:16:14.340Z,58.1
2018-10-17T01:17:04.855Z,58.2
2018-10-17T01:17:54.173Z,58.1
2018-10-17T01:18:44.114Z,58.1
2018-10-17T01:19:34.223Z,58.1
2018-10-17T01:20:24.308Z,58.1
2018-10-17T01:21:14.894Z,58.1
2018-10-17T01:22:04.740Z,58.1
2018-10-17T01:22:54.773Z,58.1
2018-10-17T01:23:44.517Z,58.1
2018-10-17T01:24:34.873Z,58
2018-10-17T01:25:24.381Z,58.1
2018-10-17T01:26:14.778Z,58
2018-10-17T01:27:04.753Z,57.9
2018-10-17T01:27:55.103Z,58
2018-10-17T01:28:44.319Z,57.9
2018-10-17T01:29:35.256Z,57.9
2018-10-17T01:30:25.280Z,57.9
2018-10-17T01:31:16.115Z,57.9
2018-10-17T01:32:04.860Z,57.9
2018-10-17T01:32:54.925Z,57.9
2018-10-17T01:33:45.250Z,57.9
2018-10-17T01:34:35.658Z,57.9
2018-10-17T01:35:25.367Z,57.9
2018-10-17T01:36:15.435Z,57.8
2018-10-17T01:37:05.511Z,57.8
2018-10-17T01:37:55.559Z,57.8
2018-10-17T01:38:45.617Z,57.8
2018-10-17T01:39:35.429Z,57.8
2018-10-17T01:42:56.220Z,57.7
2018-10-17T01:43:46.009Z,57.7
2018-10-17T01:44:36.622Z,57.7
2018-10-17T01:45:25.496Z,57.7
2018-10-17T01:46:15.904Z,57.7
2018-10-17T01:47:07.183Z,57.7
2018-10-17T01:47:56.301Z,57.7
2018-10-17T01:48:45.804Z,57.6
2018-10-17T01:49:36.103Z,57.6
2018-10-17T01:50:26.748Z,57.6
2018-10-17T01:51:16.532Z,57.6
2018-10-17T01:52:06.844Z,57.6
2018-10-17T01:52:57.597Z,57.6
2018-10-17T01:53:46.444Z,57.6
2018-10-17T01:54:36.780Z,57.6
2018-10-17T01:55:26.839Z,57.5
2018-10-17T01:56:17.160Z,57.5
2018-10-17T01:57:07.000Z,57.5
2018-10-17T01:57:57.343Z,57.5
2018-10-17T01:58:47.384Z,57.5
2018-10-17T01:59:37.435Z,57.5
2018-10-17T02:00:27.517Z,57.4
2018-10-17T02:01:17.980Z,57.4
2018-10-17T02:02:07.836Z,57.4
2018-10-17T02:02:57.680Z,57.4
2018-10-17T02:03:47.479Z,57.4
2018-10-17T02:04:37.545Z,57.4
2018-10-17T02:05:27.587Z,57.4
2018-10-17T02:06:17.641Z,57.4
2018-10-17T02:07:07.773Z,57.3
2018-10-17T02:07:57.432Z,57.3
2018-10-17T02:08:47.834Z,57.3
2018-10-17T02:09:38.172Z,57.3
2018-10-17T02:10:27.657Z,57.3
2018-10-17T02:11:18.088Z,57.3
2018-10-17T02:12:07.812Z,57.3
2018-10-17T02:12:58.110Z,57.3
2018-10-17T02:13:48.474Z,57.3
2018-10-17T02:14:37.998Z,57.2
2018-10-17T02:15:28.282Z,57.2
2018-10-17T02:16:18.664Z,57.2
2018-10-17T02:17:09.432Z,57.2
2018-10-17T02:17:58.504Z,57.2
2018-10-17T02:18:48.817Z,57.1
2018-10-17T02:19:38.949Z,57.1
2018-10-17T02:20:28.969Z,57.1
2018-10-17T02:21:18.734Z,57.1
2018-10-17T02:22:09.079Z,57.1
2018-10-17T02:22:58.893Z,57.1
2018-10-17T02:23:48.708Z,57.1
2018-10-17T02:24:39.294Z,57.1
2018-10-17T02:25:29.041Z,57
2018-10-17T02:26:19.141Z,57.1
2018-10-17T02:27:09.756Z,57.1
2018-10-17T02:27:59.238Z,57
2018-10-17T02:28:48.971Z,57
2018-10-17T02:29:39.611Z,57
2018-10-17T02:30:29.462Z,57
2018-10-17T02:31:21.169Z,56.9
2018-10-17T02:32:09.675Z,56.9
2018-10-17T02:32:59.893Z,56.9
2018-10-17T02:33:50.235Z,56.9
2018-10-17T02:34:40.003Z,56.9
2018-10-17T02:35:29.462Z,56.9
2018-10-17T02:36:19.898Z,56.9
2018-10-17T02:37:11.410Z,56.9
2018-10-17T02:37:59.972Z,56.8
2018-10-17T02:38:49.459Z,56.9
2018-10-17T02:39:39.610Z,56.8
2018-10-17T02:40:30.161Z,56.8
2018-10-17T02:41:21.414Z,56.8
2018-10-17T02:42:10.563Z,56.8
2018-10-17T02:43:00.850Z,56.8
2018-10-17T02:43:50.358Z,56.8
2018-10-17T02:44:40.747Z,56.8
2018-10-17T02:45:31.096Z,56.8
2018-10-17T02:46:20.333Z,56.8
2018-10-17T02:47:12.513Z,56.7
2018-10-17T02:48:00.444Z,56.7
2018-10-17T02:48:50.811Z,56.7
2018-10-17T02:49:40.846Z,56.7
2018-10-17T02:50:31.174Z,56.6
2018-10-17T02:51:20.695Z,56.6
2018-10-17T02:52:11.263Z,56.6
2018-10-17T02:53:01.897Z,56.6
2018-10-17T02:53:51.412Z,56.6
2018-10-17T02:54:40.905Z,56.6
2018-10-17T02:55:31.543Z,56.6
2018-10-17T02:56:21.615Z,56.6
2018-10-17T02:57:11.630Z,56.6
2018-10-17T02:58:00.873Z,56.6
2018-10-17T02:58:52.131Z,56.5
2018-10-17T02:59:41.275Z,56.6
2018-10-17T03:00:31.707Z,56.5
2018-10-17T03:01:21.668Z,56.5
2018-10-17T03:02:11.742Z,56.5
2018-10-17T03:03:01.814Z,56.4
2018-10-17T03:03:52.402Z,56.4
2018-10-17T03:04:41.674Z,56.4
2018-10-17T03:05:32.347Z,56.4
2018-10-17T03:06:22.330Z,56.4
2018-10-17T03:07:12.556Z,56.4
2018-10-17T03:08:02.173Z,56.4
2018-10-17T03:08:52.236Z,56.4
2018-10-17T03:09:42.307Z,56.4
2018-10-17T03:10:32.109Z,56.3
2018-10-17T03:11:22.618Z,56.4
2018-10-17T03:12:12.821Z,56.3
2018-10-17T03:13:03.449Z,56.3
2018-10-17T03:13:52.322Z,56.3
2018-10-17T03:14:42.978Z,56.3
2018-10-17T03:15:33.089Z,56.3
2018-10-17T03:16:22.955Z,56.3
2018-10-17T03:17:14.600Z,56.3
2018-10-17T03:18:03.223Z,56.3
2018-10-17T03:18:53.274Z,56.3
2018-10-17T03:19:43.259Z,56.2
2018-10-17T03:20:33.119Z,56.2
2018-10-17T03:21:23.221Z,56.2
2018-10-17T03:22:13.012Z,56.1
2018-10-17T03:23:04.426Z,56.1
2018-10-17T03:23:53.368Z,56
2018-10-17T03:24:43.456Z,56
2018-10-17T03:25:34.228Z,55.9
2018-10-17T03:26:23.608Z,55.9
2018-10-17T03:27:13.603Z,55.9
2018-10-17T03:28:03.868Z,55.9
2018-10-17T03:28:53.601Z,55.9
2018-10-17T03:29:43.474Z,55.9
2018-10-17T03:30:33.866Z,55.8
2018-10-17T03:31:24.931Z,55.8
2018-10-17T03:32:14.051Z,55.8
2018-10-17T03:33:03.771Z,55.8
2018-10-17T03:33:54.087Z,55.8
2018-10-17T03:34:44.474Z,55.8
2018-10-17T03:35:34.292Z,55.8
2018-10-17T03:36:24.591Z,55.8
2018-10-17T03:37:14.793Z,55.8
2018-10-17T03:38:04.468Z,55.8
2018-10-17T03:38:54.824Z,55.7
2018-10-17T03:39:44.656Z,55.7
2018-10-17T03:40:34.930Z,55.7
2018-10-17T03:41:24.788Z,55.6
2018-10-17T03:42:14.846Z,55.6
2018-10-17T03:43:04.272Z,55.6
2018-10-17T03:43:55.187Z,55.6
2018-10-17T03:44:45.272Z,55.5
2018-10-17T03:45:35.047Z,55.5
2018-10-17T03:46:25.047Z,55.5
2018-10-17T03:47:16.759Z,55.4
2018-10-17T03:48:04.630Z,55.4
2018-10-17T03:48:55.307Z,55.4
2018-10-17T03:49:45.864Z,55.4
2018-10-17T03:50:35.165Z,55.4
2018-10-17T03:51:25.699Z,55.4
2018-10-17T03:52:15.779Z,55.4
2018-10-17T03:53:06.640Z,55.4
2018-10-17T03:53:55.853Z,55.4
2018-10-17T03:54:45.974Z,55.3
2018-10-17T03:55:35.492Z,55.3
2018-10-17T03:56:25.484Z,55.3
2018-10-17T03:57:15.519Z,55.3
2018-10-17T03:58:05.584Z,55.3
2018-10-17T03:58:56.659Z,55.3
2018-10-17T03:59:46.587Z,55.3
2018-10-17T04:00:36.067Z,55.3
2018-10-17T04:01:25.844Z,55.3
2018-10-17T04:02:16.505Z,55.3
2018-10-17T04:03:07.338Z,55.2
2018-10-17T04:03:56.591Z,55.2
2018-10-17T04:04:46.094Z,55.2
2018-10-17T04:05:36.714Z,55.2
2018-10-17T04:06:27.081Z,55.2
2018-10-17T04:07:17.352Z,55.1
2018-10-17T04:08:06.884Z,55.2
2018-10-17T04:08:56.961Z,55.1
2018-10-17T04:09:47.041Z,55.1
2018-10-17T04:10:36.773Z,55.1
2018-10-17T04:11:26.309Z,55.1
2018-10-17T04:12:16.624Z,55.1
2018-10-17T04:13:07.986Z,55.1
2018-10-17T04:13:57.304Z,55.1
2018-10-17T04:14:47.083Z,55.1
2018-10-17T04:15:37.511Z,55.1
2018-10-17T04:16:27.473Z,55.1
2018-10-17T04:17:18.209Z,55
2018-10-17T04:18:07.648Z,55
2018-10-17T04:18:57.798Z,55
2018-10-17T04:19:47.766Z,55
2018-10-17T04:20:37.707Z,54.9
2018-10-17T04:21:26.988Z,54.9
2018-10-17T04:22:17.914Z,54.9
2018-10-17T04:23:09.010Z,54.9
2018-10-17T04:23:57.817Z,54.9
2018-10-17T04:24:47.854Z,54.9
2018-10-17T04:25:38.235Z,54.9
2018-10-17T04:26:27.077Z,54.9
2018-10-17T04:27:18.015Z,54.9
2018-10-17T04:28:08.070Z,54.9
2018-10-17T04:28:58.428Z,54.8
2018-10-17T04:29:48.181Z,54.8
2018-10-17T04:30:38.252Z,54.8
2018-10-17T04:31:28.312Z,54.8
2018-10-17T04:32:18.382Z,54.8
2018-10-17T04:33:08.174Z,54.8
2018-10-17T04:33:58.766Z,54.8
2018-10-17T04:34:48.856Z,54.8
2018-10-17T04:35:38.910Z,54.8
2018-10-17T04:36:28.702Z,54.7
2018-10-17T04:54:19.780Z,54.3
2018-10-17T04:55:09.984Z,54.3
2018-10-17T04:55:59.350Z,54.3
2018-10-17T04:56:49.475Z,54.2
2018-10-17T04:57:39.495Z,54.2
2018-10-17T04:58:29.567Z,54.3
2018-10-17T04:59:20.575Z,54.2
2018-10-17T05:00:09.663Z,54.2
2018-10-17T05:01:00.152Z,54.1
2018-10-17T05:01:49.788Z,54.1
2018-10-17T05:02:39.869Z,54.1
2018-10-17T05:03:29.639Z,54.1
2018-10-17T05:04:19.487Z,54.1
2018-10-17T05:05:10.888Z,54.1
2018-10-17T05:06:00.082Z,54.1
2018-10-17T05:06:50.649Z,54.1
2018-10-17T05:07:39.933Z,54.1
2018-10-17T05:08:30.264Z,54.1
2018-10-17T05:09:20.598Z,54.1
2018-10-17T05:10:10.407Z,54
2018-10-17T05:11:00.143Z,54
2018-10-17T05:11:50.226Z,54
2018-10-17T05:12:40.565Z,54
2018-10-17T05:13:30.390Z,54
2018-10-17T05:14:20.412Z,53.9
2018-10-17T05:15:11.020Z,53.9
2018-10-17T05:16:00.541Z,53.9
2018-10-17T05:16:50.316Z,53.9
2018-10-17T05:17:40.653Z,53.9
2018-10-17T05:18:30.711Z,53.9
2018-10-17T05:19:20.816Z,53.9
2018-10-17T05:20:11.122Z,53.9
2018-10-17T05:21:00.901Z,53.9
2018-10-17T05:21:50.966Z,53.9
2018-10-17T05:22:40.751Z,53.8
2018-10-17T05:23:31.088Z,53.8
2018-10-17T05:24:21.143Z,53.8
2018-10-17T05:25:12.611Z,53.8
2018-10-17T05:26:01.261Z,53.8
2018-10-17T05:26:51.338Z,53.8
2018-10-17T05:27:41.663Z,53.8
2018-10-17T05:28:31.765Z,53.8
2018-10-17T05:29:21.538Z,53.8
2018-10-17T05:30:11.300Z,53.8
2018-10-17T05:31:02.472Z,53.7
2018-10-17T05:31:51.693Z,53.8
2018-10-17T05:32:41.751Z,53.7
2018-10-17T05:33:32.105Z,53.7
2018-10-17T05:34:22.163Z,53.7
2018-10-17T05:35:12.996Z,53.7
2018-10-17T05:36:01.996Z,53.6
2018-10-17T05:36:52.471Z,53.6
2018-10-17T05:37:43.491Z,53.6
2018-10-17T05:38:31.899Z,53.6
2018-10-17T05:39:21.947Z,53.6
2018-10-17T05:40:12.569Z,53.6
2018-10-17T05:41:02.252Z,53.6
2018-10-17T05:41:52.671Z,53.6
2018-10-17T05:42:42.199Z,53.6
2018-10-17T05:43:32.821Z,53.6
2018-10-17T05:44:22.651Z,53.6
2018-10-17T05:45:12.958Z,53.5
2018-10-17T05:46:03.268Z,53.5
2018-10-17T05:46:53.490Z,53.5
2018-10-17T05:47:42.842Z,53.5
2018-10-17T05:48:32.908Z,53.5
2018-10-17T05:49:23.259Z,53.4
2018-10-17T05:50:12.851Z,53.4
2018-10-17T05:51:03.448Z,53.4
2018-10-17T05:51:53.145Z,53.4
2018-10-17T05:52:43.486Z,53.4
2018-10-17T05:53:33.556Z,53.4
2018-10-17T05:54:23.323Z,53.4
2018-10-17T05:55:14.881Z,53.4
2018-10-17T05:56:03.203Z,53.4
2018-10-17T05:56:53.793Z,53.4
2018-10-17T05:57:43.579Z,53.3
2018-10-17T05:58:33.627Z,53.3
2018-10-17T05:59:24.022Z,53.3
2018-10-17T06:00:13.588Z,53.3
2018-10-17T06:01:04.359Z,53.3
2018-10-17T06:01:54.774Z,53.3
2018-10-17T06:02:43.823Z,53.3
2018-10-17T06:03:34.533Z,53.3
2018-10-17T06:04:24.411Z,53.3
2018-10-17T06:05:15.623Z,53.3
2018-10-17T06:06:04.180Z,53.3
2018-10-17T06:06:54.792Z,53.2
2018-10-17T06:07:44.300Z,53.2
2018-10-17T06:08:34.660Z,53.2
2018-10-17T06:09:24.434Z,53.2
2018-10-17T06:10:15.716Z,53.2
2018-10-17T06:11:05.704Z,53.1
2018-10-17T06:11:54.627Z,53.1
2018-10-17T06:12:44.964Z,53.1
2018-10-17T06:13:35.025Z,53.1
2018-10-17T06:14:25.098Z,53.1
2018-10-17T06:15:14.295Z,53.1
2018-10-17T06:16:05.217Z,53.1
2018-10-17T06:16:55.525Z,53.1
2018-10-17T06:17:45.838Z,53.1
2018-10-17T06:18:35.314Z,53.1
2018-10-17T06:19:25.732Z,53.1
2018-10-17T06:20:16.050Z,53
2018-10-17T06:21:06.073Z,53
2018-10-17T06:21:56.111Z,53
2018-10-17T06:22:45.787Z,53
2018-10-17T06:23:35.871Z,53
2018-10-17T06:24:25.829Z,52.9
2018-10-17T06:25:16.596Z,52.9
2018-10-17T06:26:05.634Z,52.9
2018-10-17T06:26:56.059Z,52.9
2018-10-17T06:27:45.797Z,52.9
2018-10-17T06:28:35.881Z,52.9
2018-10-17T06:29:25.679Z,52.9
2018-10-17T06:30:16.274Z,52.9
2018-10-17T06:31:05.681Z,52.9
2018-10-17T06:31:56.491Z,52.9
2018-10-17T06:32:46.553Z,52.9
2018-10-17T06:33:36.272Z,52.8
2018-10-17T06:34:27.047Z,52.8
2018-10-17T06:35:17.683Z,52.8
2018-10-17T06:36:06.664Z,52.8
2018-10-17T06:36:56.639Z,52.8
2018-10-17T06:37:46.804Z,52.8
2018-10-17T06:38:36.850Z,52.8
2018-10-17T06:39:26.950Z,52.8
2018-10-17T06:40:16.989Z,52.8
2018-10-17T06:41:07.259Z,52.8
2018-10-17T06:41:56.519Z,52.7
2018-10-17T06:42:47.173Z,52.7
2018-10-17T06:43:38.264Z,52.7
2018-10-17T06:44:27.308Z,52.7
2018-10-17T06:45:17.068Z,52.7
2018-10-17T06:46:07.163Z,52.6
2018-10-17T06:46:57.865Z,52.7
2018-10-17T06:47:47.504Z,52.6
2018-10-17T06:48:37.056Z,52.6
2018-10-17T06:49:27.669Z,52.6
2018-10-17T06:50:17.714Z,52.6
2018-10-17T06:51:08.206Z,52.6
2018-10-17T06:51:57.831Z,52.6
2018-10-17T06:52:47.886Z,52.6
2018-10-17T06:53:37.957Z,52.6
2018-10-17T06:54:28.761Z,52.6
2018-10-17T06:55:19.118Z,52.6
2018-10-17T06:56:07.848Z,52.5
2018-10-17T06:56:58.176Z,52.6
2018-10-17T06:57:48.277Z,52.5
2018-10-17T06:58:38.313Z,52.5
2018-10-17T06:59:27.805Z,52.5
2018-10-17T07:00:18.284Z,52.4
2018-10-17T07:01:09.440Z,52.4
2018-10-17T07:02:00.678Z,52.4
2018-10-17T07:02:48.028Z,52.4
2018-10-17T07:03:38.649Z,52.4
2018-10-17T07:04:28.731Z,52.4
2018-10-17T07:06:08.861Z,52.4
2018-10-17T07:10:19.135Z,52.3
2018-10-17T07:11:09.690Z,52.3
2018-10-17T07:11:59.288Z,52.3
2018-10-17T07:12:49.076Z,52.3
2018-10-17T07:13:39.419Z,52.3
2018-10-17T07:14:29.164Z,52.3
2018-10-17T07:15:19.925Z,52.3
2018-10-17T07:16:08.743Z,52.3
2018-10-17T07:17:00.139Z,52.3
2018-10-17T07:17:49.720Z,52.3
2018-10-17T07:18:39.493Z,52.3
2018-10-17T07:19:29.627Z,52.3
2018-10-17T07:20:20.161Z,52.2
2018-10-17T07:21:09.947Z,52.2
2018-10-17T07:21:59.542Z,52.2
2018-10-17T07:22:49.800Z,52.2
2018-10-17T07:23:39.838Z,52.1
2018-10-17T07:24:29.913Z,52.1
2018-10-17T07:25:20.661Z,52.1
2018-10-17T07:26:10.319Z,52.1
2018-10-17T07:27:00.407Z,52.1
2018-10-17T07:27:50.006Z,52.1
2018-10-17T07:28:40.423Z,52.1
2018-10-17T07:29:32.929Z,52.1
2018-10-17T07:30:20.139Z,52.1
2018-10-17T07:31:11.468Z,52.1
2018-10-17T07:32:00.467Z,52.1
2018-10-17T07:32:50.259Z,52
2018-10-17T07:33:40.925Z,52
2018-10-17T07:34:30.919Z,52
2018-10-17T07:35:20.710Z,52
2018-10-17T07:36:12.043Z,52
2018-10-17T07:37:01.091Z,52
2018-10-17T07:37:50.896Z,52
2018-10-17T07:42:51.262Z,51.9
2018-10-17T07:43:41.361Z,51.9
2018-10-17T07:44:31.201Z,51.9
2018-10-17T07:45:21.729Z,51.9
2018-10-17T07:46:11.859Z,51.9
2018-10-17T07:47:01.875Z,51.9
2018-10-17T07:47:51.704Z,51.9
2018-10-17T07:48:41.986Z,51.9
2018-10-17T07:49:31.758Z,51.8
2018-10-17T07:50:21.826Z,51.8
2018-10-17T07:51:12.143Z,51.8
2018-10-17T07:52:01.986Z,51.8
2018-10-17T07:52:52.182Z,51.8
2018-10-17T07:53:43.039Z,51.8
2018-10-17T07:54:32.408Z,51.8
2018-10-17T07:55:22.447Z,51.8
2018-10-17T07:56:12.514Z,51.8
2018-10-17T07:57:02.590Z,51.8
2018-10-17T07:57:52.670Z,51.8
2018-10-17T07:58:42.426Z,51.8
2018-10-17T07:59:32.826Z,51.7
2018-10-17T08:00:23.015Z,51.7
2018-10-17T08:01:12.319Z,51.7
2018-10-17T08:02:02.935Z,51.7
2018-10-17T08:02:52.530Z,51.7
2018-10-17T08:03:43.065Z,51.6
2018-10-17T08:04:32.857Z,51.6
2018-10-17T08:05:22.914Z,51.6
2018-10-17T08:06:14.556Z,51.6
2018-10-17T08:07:02.866Z,51.6
2018-10-17T08:07:53.110Z,51.6
2018-10-17T08:08:43.455Z,51.6
2018-10-17T08:09:33.515Z,51.6
2018-10-17T08:10:23.287Z,51.6
2018-10-17T08:11:13.885Z,51.6
2018-10-17T08:12:04.480Z,51.6
2018-10-17T08:12:53.759Z,51.6
2018-10-17T08:13:43.524Z,51.5
2018-10-17T08:14:33.876Z,51.5
2018-10-17T08:15:23.081Z,51.5
2018-10-17T08:16:13.722Z,51.5
2018-10-17T08:17:03.180Z,51.5
2018-10-17T08:17:54.362Z,51.5
2018-10-17T08:18:44.197Z,51.4
2018-10-17T08:19:33.959Z,51.4
2018-10-17T08:20:24.351Z,51.4
2018-10-17T08:21:14.695Z,51.4
2018-10-17T08:22:04.454Z,51.4
2018-10-17T08:22:53.947Z,51.4
2018-10-17T08:23:44.554Z,51.4
2018-10-17T08:24:34.595Z,51.4
2018-10-17T08:25:24.216Z,51.4
2018-10-17T08:26:14.740Z,51.4
2018-10-17T08:27:04.520Z,51.4
2018-10-17T08:27:54.871Z,51.3
2018-10-17T08:28:44.911Z,51.3
2018-10-17T08:29:34.703Z,51.3
2018-10-17T08:30:25.055Z,51.3
2018-10-17T08:31:15.114Z,51.3
2018-10-17T08:32:04.866Z,51.3
2018-10-17T08:32:54.948Z,51.3
2018-10-17T08:33:45.289Z,51.3
2018-10-17T08:34:35.055Z,51.2
2018-10-17T08:35:26.756Z,51.1
2018-10-17T08:36:16.830Z,51.1
2018-10-17T08:37:09.694Z,51
2018-10-17T08:37:57.967Z,50.9
2018-10-17T08:38:45.670Z,50.9
2018-10-17T08:39:35.159Z,50.9
2018-10-17T08:40:25.496Z,50.8
2018-10-17T08:41:16.616Z,50.8
2018-10-17T08:42:05.603Z,50.8
2018-10-17T08:42:55.685Z,50.8
2018-10-17T08:43:46.063Z,50.8
2018-10-17T08:44:35.318Z,50.8
2018-10-17T08:45:25.656Z,50.8
2018-10-17T08:46:15.667Z,50.9
2018-10-17T08:47:05.773Z,50.9
2018-10-17T08:47:56.033Z,51
2018-10-17T08:48:46.116Z,51.1
2018-10-17T08:49:36.501Z,51.1
2018-10-17T08:50:26.335Z,51.2
2018-10-17T08:51:16.574Z,51.3
2018-10-17T08:52:06.650Z,51.3
2018-10-17T09:08:52.265Z,52.6
2018-10-17T09:09:41.780Z,52.7
2018-10-17T09:10:32.123Z,52.8
2018-10-17T09:11:22.457Z,52.8
2018-10-17T09:12:13.223Z,52.9
2018-10-17T09:13:02.629Z,53
2018-10-17T09:13:52.772Z,53.1
2018-10-17T09:14:42.367Z,53.1
2018-10-17T09:15:32.779Z,53.3
2018-10-17T09:16:23.105Z,53.3
2018-10-17T09:17:12.602Z,53.4
2018-10-17T09:18:03.219Z,53.4
2018-10-17T09:18:52.444Z,53.5
2018-10-17T09:19:45.818Z,53.6
2018-10-17T09:20:34.926Z,53.7
2018-10-17T09:21:29.279Z,53.8
2018-10-17T09:22:18.646Z,53.8
2018-10-17T09:23:03.302Z,53.9
2018-10-17T09:23:53.142Z,54
2018-10-17T09:24:43.154Z,54
2018-10-17T09:25:34.377Z,54.1
2018-10-17T09:26:22.775Z,54.2
2018-10-17T09:27:13.335Z,54.3
2018-10-17T09:28:04.082Z,54.3
2018-10-17T09:28:53.506Z,54.4
2018-10-17T09:29:43.494Z,54.4
2018-10-17T09:30:35.460Z,54.6
2018-10-17T09:31:23.921Z,54.6
2018-10-17T09:32:13.984Z,54.7
2018-10-17T09:33:03.750Z,54.8
2018-10-17T09:33:54.428Z,54.8
2018-10-17T09:34:43.614Z,54.9
2018-10-17T09:35:34.648Z,55
2018-10-17T09:36:24.605Z,55.1
2018-10-17T09:37:14.360Z,55.1
2018-10-17T09:38:04.421Z,55.3
2018-10-17T09:38:54.435Z,55.3
2018-10-17T09:39:44.236Z,55.4
2018-10-17T09:40:34.848Z,55.4
2018-10-17T09:41:24.103Z,55.5
2018-10-17T09:42:15.901Z,55.6
2018-10-17T09:43:04.443Z,55.7
2018-10-17T09:43:55.074Z,55.8
2018-10-17T09:44:44.905Z,55.8
2018-10-17T09:45:34.686Z,55.9
2018-10-17T09:46:24.766Z,55.9
2018-10-17T09:47:15.075Z,56.1
2018-10-17T09:48:05.882Z,56.1
2018-10-17T09:48:54.996Z,56.2
2018-10-17T09:49:45.062Z,56.3
2018-10-17T09:50:35.007Z,56.3
2018-10-17T09:51:25.413Z,56.4
2018-10-17T09:52:15.845Z,56.5
2018-10-17T09:53:05.568Z,56.6
2018-10-17T09:53:55.916Z,56.6
2018-10-17T09:54:45.645Z,56.7
2018-10-17T09:55:35.695Z,56.8
2018-10-17T09:56:25.865Z,56.8
2018-10-17T09:57:15.252Z,56.9
2018-10-17T09:58:06.469Z,57
2018-10-17T09:58:55.939Z,57.1
2018-10-17T09:59:44.857Z,57.2
2018-10-17T10:00:35.780Z,57.3
2018-10-17T10:01:25.855Z,57.3
2018-10-17T10:02:16.769Z,57.4
2018-10-17T10:03:06.261Z,57.4
2018-10-17T10:03:56.698Z,57.5
2018-10-17T10:04:46.381Z,57.6
2018-10-17T10:05:36.749Z,57.7
2018-10-17T10:07:16.282Z,57.8
2018-10-17T10:08:06.621Z,57.9
2018-10-17T10:08:56.389Z,58
2018-10-17T10:09:46.753Z,58.1
2018-10-17T10:10:36.522Z,58.1
2018-10-17T10:11:26.609Z,58.2
2018-10-17T10:12:18.453Z,58.3
2018-10-17T10:13:06.981Z,58.4
2018-10-17T10:13:57.796Z,58.4
2018-10-17T10:14:47.389Z,58.5
2018-10-17T10:16:27.387Z,58.7
2018-10-17T10:17:17.071Z,58.8
2018-10-17T10:18:06.525Z,58.8
2018-10-17T10:18:57.438Z,58.9
2018-10-17T10:19:47.496Z,58.9
2018-10-17T10:20:37.575Z,59
2018-10-17T10:21:27.647Z,59.1
2018-10-17T10:22:18.418Z,59.1
2018-10-17T10:23:08.197Z,59.3
2018-10-17T10:23:57.675Z,59.3
2018-10-17T10:24:49.022Z,59.3
2018-10-17T10:25:37.694Z,59.4
2018-10-17T10:26:27.460Z,59.5
2018-10-17T10:27:18.110Z,59.6
2018-10-17T10:28:09.520Z,59.6
2018-10-17T10:28:57.883Z,59.7
2018-10-17T10:29:49.174Z,59.8
2018-10-17T10:30:38.305Z,59.8
2018-10-17T10:31:28.371Z,59.9
2018-10-17T10:32:18.477Z,59.9
2018-10-17T10:33:08.847Z,60.1
2018-10-17T10:33:58.922Z,60.1
2018-10-17T10:34:48.858Z,60.1
2018-10-17T10:35:38.409Z,60.2
2018-10-17T10:36:28.451Z,60.3
2018-10-17T10:37:18.498Z,60.3
2018-10-17T10:38:08.885Z,60.4
2018-10-17T10:38:58.606Z,60.5
2018-10-17T10:39:48.995Z,60.6
2018-10-17T10:40:39.851Z,60.6
2018-10-17T10:41:29.060Z,60.7
2018-10-17T10:42:19.394Z,60.8
2018-10-17T10:43:09.210Z,60.8
2018-10-17T10:43:59.684Z,60.9
2018-10-17T10:44:49.341Z,60.9
2018-10-17T10:45:40.224Z,61.1
2018-10-17T10:46:29.452Z,61.1
2018-10-17T10:47:19.515Z,61.2
2018-10-17T10:48:10.543Z,61.2
2018-10-17T10:48:59.788Z,61.3
2018-10-17T10:49:49.694Z,61.3
2018-10-17T10:50:39.767Z,61.4
2018-10-17T10:51:30.297Z,61.4
2018-10-17T10:52:19.614Z,61.5
2018-10-17T10:53:10.637Z,61.6
2018-10-17T10:54:00.345Z,61.6
2018-10-17T10:54:49.848Z,61.6
2018-10-17T10:55:39.831Z,61.7
2018-10-17T10:56:30.203Z,61.8
2018-10-17T10:57:20.621Z,61.8
2018-10-17T10:58:11.623Z,61.9
2018-10-17T10:59:01.454Z,61.9
2018-10-17T10:59:50.579Z,62
2018-10-17T11:00:40.487Z,62.1
2018-10-17T11:01:30.278Z,62.1
2018-10-17T11:02:21.013Z,62.1
2018-10-17T11:03:11.188Z,62.2
2018-10-17T11:04:00.444Z,62.3
2018-10-17T11:04:51.954Z,62.3
2018-10-17T11:05:42.775Z,62.4
2018-10-17T11:06:30.903Z,62.4
2018-10-17T11:07:20.951Z,62.5
2018-10-17T11:08:12.063Z,62.5
2018-10-17T11:09:01.099Z,62.6
2018-10-17T11:09:51.170Z,62.6
2018-10-17T11:10:40.963Z,62.7
2018-10-17T11:11:31.555Z,62.8
2018-10-17T11:12:21.350Z,62.8
2018-10-17T11:13:11.423Z,62.8
2018-10-17T11:14:02.787Z,62.9
2018-10-17T11:14:53.994Z,62.9
2018-10-17T11:15:41.660Z,63
2018-10-17T11:16:31.655Z,63.1
2018-10-17T11:17:21.396Z,63.1
2018-10-17T11:18:11.793Z,63.1
2018-10-17T11:19:01.837Z,63.1
2018-10-17T11:19:51.896Z,63.2
2018-10-17T11:20:41.689Z,63.3
2018-10-17T11:21:31.195Z,63.3
2018-10-17T11:22:22.382Z,63.3
2018-10-17T11:23:12.954Z,63.4
2018-10-17T11:24:01.910Z,63.4
2018-10-17T11:24:51.702Z,63.5
2018-10-17T11:25:42.035Z,63.6
2018-10-17T11:26:32.407Z,63.6
2018-10-17T11:27:22.580Z,63.6
2018-10-17T11:28:12.507Z,63.7
2018-10-17T11:29:03.139Z,63.8
2018-10-17T11:29:52.635Z,63.8
2018-10-17T11:30:42.414Z,63.8
2018-10-17T11:31:33.009Z,63.9
2018-10-17T11:32:22.879Z,63.9
2018-10-17T11:33:14.192Z,63.9
2018-10-17T11:34:02.987Z,64
2018-10-17T11:34:53.138Z,64
2018-10-17T11:35:43.079Z,64.1
2018-10-17T11:36:33.186Z,64.1
2018-10-17T11:37:24.124Z,64.2
2018-10-17T11:38:12.998Z,64.2
2018-10-17T11:39:04.055Z,64.3
2018-10-17T11:39:53.361Z,64.3
2018-10-17T11:40:44.880Z,64.3
2018-10-17T11:41:34.581Z,64.4
2018-10-17T11:42:23.276Z,64.4
2018-10-17T11:43:13.905Z,64.4
2018-10-17T11:44:03.756Z,64.4
2018-10-17T11:44:53.638Z,64.5
2018-10-17T11:45:43.823Z,64.5
2018-10-17T11:46:33.923Z,64.6
2018-10-17T11:47:23.959Z,64.6
2018-10-17T11:48:13.986Z,64.6
2018-10-17T11:49:03.806Z,64.7
2018-10-17T11:49:53.857Z,64.8
2018-10-17T11:50:44.461Z,64.8
2018-10-17T11:51:34.494Z,64.8
2018-10-17T11:52:24.307Z,64.8
2018-10-17T11:53:14.354Z,64.9
2018-10-17T11:54:04.456Z,64.9
2018-10-17T11:54:54.195Z,64.9
2018-10-17T11:55:48.288Z,65
2018-10-17T11:56:35.907Z,65
2018-10-17T11:57:24.213Z,65.1
2018-10-17T11:58:14.531Z,65.1
2018-10-17T11:59:05.169Z,65.1
2018-10-17T11:59:54.680Z,65.1
2018-10-17T12:00:44.727Z,65.2
2018-10-17T12:01:34.830Z,65.2
2018-10-17T12:02:24.257Z,65.3
2018-10-17T12:03:15.927Z,65.3
2018-10-17T12:04:09.075Z,65.3
2018-10-17T12:04:57.277Z,65.3
2018-10-17T12:05:47.817Z,65.4
2018-10-17T12:06:36.404Z,65.4
2018-10-17T14:07:37.444Z,65.3
2018-10-17T14:08:27.234Z,65.3
2018-10-17T14:09:17.721Z,65.3
2018-10-17T14:10:07.368Z,65.3
2018-10-17T14:10:57.411Z,65.3
2018-10-17T14:11:47.854Z,65.3
2018-10-17T14:12:37.828Z,65.3
2018-10-17T14:13:28.488Z,65.3
2018-10-17T14:14:17.662Z,65.3
2018-10-17T14:15:08.602Z,65.2
2018-10-17T14:15:58.073Z,65.3